TJPSTJSJ

Guest
Details From TJPS - Ponce/Mercedita
To TJSJ - San Juan - Luis Munoz Marin Intl
Flight Number -
Tags generated
Created
Modified
Stats Distance 41 nm / 76 km
Max Altitude 4,500 ft / 1,372 m
Waypoints 3
Social Downloads 0
Likes 0
Share VATSIM

Download

Looking for another format? Having issues loading an existing format? Contact us
Advertisement - Login to hide

Notes

Basic altitude profile: - Ascent Rate: 2500ft/min - Ascent Speed: 250kts - Cruise Altitude: 25000ft - Cruise Speed: 300kts - Descent Rate: 1500ft/min - Descent Speed: 250kts

Route

TJPS GANBO TJSJ

ID Type Via Altitude Latitude Longitude Leg Dist Tot Dist Heading (true) Name
O TJPS APT - 0 ft / 0 m 18.00831˚ -66.56301˚ - 0 nm - Ponce/Mercedita
GANBO FIX - 4,500 ft / 1,372 m 18.26773˚ -66.19842˚ 25 nm 25 nm 53° / 53° -
O TJSJ APT - 0 ft / 0 m 18.43878˚ -66.00202˚ 15 nm 41 nm 47° / 47° San Juan - Luis Munoz Marin Intl

Altitude Profile

Advertisement - Login to hide

TJPS

Details ICAO TJPS (PSE)
Name Ponce/Mercedita
Region USA (Puerto Rico)
Timezone America/Puerto_Rico (UTC-4.0)
Stats Elevation 29 ft / 9 m (AMSL)
Location 18.008312° -66.563014°
Runways 1
Magnetic Variation 12.954° W

METAR

Not found

TAF

TAF TJPS 121737Z 1218/1318 16010KT P6SM FEW030 SCT060 FM122300 05005KT P6SM FEW060 FM131400 18008KT P6SM FEW030 AMD NOT SKED TIL 130300

Decode

Departure Runways

ID Width Length Bearing (true) Bearing (mag) Surface Threshold Offset Overrun Length
12 151 ft / 46 m 6,900 ft / 2,103 m 108.03° 120.98° Asphalt 787 ft / 240 m 200 ft / 61 m
30 151 ft / 46 m 6,900 ft / 2,103 m 288.03° 300.98° Asphalt 226 ft / 69 m 0 ft / 0 m

TJSJ

Details ICAO TJSJ (SJU)
Name San Juan - Luis Munoz Marin Intl
Region USA (Puerto Rico)
Timezone America/Puerto_Rico (UTC-4.0)
Stats Elevation 9 ft / 3 m (AMSL)
Location 18.438777° -66.002018°
Runways 2
Magnetic Variation 13.221° W

METAR

TJSJ 122156Z 16007KT 10SM FEW032 SCT065 SCT095 28/22 A2990

Decode

TAF

TAF TJSJ 121737Z 1218/1318 05008KT P6SM FEW025 FEW035 SCT050 FM122300 11005KT P6SM FEW060 FM131400 VRB03KT P6SM SCT030

Decode

Destination Runways

ID Width Length Bearing (true) Bearing (mag) Surface Threshold Offset Overrun Length
08 200 ft / 61 m 9,781 ft / 2,981 m 66.87° 80.09° Asphalt 0 ft / 0 m 200 ft / 61 m
10 151 ft / 46 m 8,007 ft / 2,440 m 90.14° 103.36° Concrete 0 ft / 0 m 200 ft / 61 m
26 200 ft / 61 m 9,781 ft / 2,981 m 246.88° 260.10° Asphalt 0 ft / 0 m 230 ft / 70 m
28 151 ft / 46 m 8,007 ft / 2,440 m 270.15° 283.37° Concrete 0 ft / 0 m 200 ft / 61 m

Approach Navaids

Runway Type Ident Frequency Range Bearing (true) Bearing (mag) Slope Elevation
08 Localiser ISJU 110.30 MHz 18 nm / 33 km 66.88° 80.10° - 5 ft / 2 m (AMSL)
08 Glidescope ISJU 110.30 MHz 10 nm / 19 km 66.87° 80.09° 3.00° 9 ft / 3 m (AMSL)
10 Localiser ICLA 109.70 MHz 18 nm / 33 km 90.15° 103.37° - 9 ft / 3 m (AMSL)
10 Glidescope ICLA 109.70 MHz 10 nm / 19 km 90.14° 103.37° 3.00° 8 ft / 2 m (AMSL)

Popular Alternatives